sensor_id;sensor_type;location;lat;lon;timestamp;temperature;humidity
18712;DHT22;9485;49.386;8.674;2023-06-19T00:02:32;26.30;35.90
18712;DHT22;9485;49.386;8.674;2023-06-19T00:07:52;26.10;36.30
18712;DHT22;9485;49.386;8.674;2023-06-19T00:13:13;26.10;36.40
18712;DHT22;9485;49.386;8.674;2023-06-19T00:18:35;25.90;36.60
18712;DHT22;9485;49.386;8.674;2023-06-19T00:23:58;25.90;36.90
18712;DHT22;9485;49.386;8.674;2023-06-19T00:29:19;25.80;37.10
18712;DHT22;9485;49.386;8.674;2023-06-19T00:34:42;25.80;37.30
18712;DHT22;9485;49.386;8.674;2023-06-19T00:40:03;25.80;37.40
18712;DHT22;9485;49.386;8.674;2023-06-19T00:45:25;25.70;37.20
18712;DHT22;9485;49.386;8.674;2023-06-19T00:50:49;25.70;37.30
18712;DHT22;9485;49.386;8.674;2023-06-19T00:56:10;25.80;37.90
18712;DHT22;9485;49.386;8.674;2023-06-19T01:01:31;25.90;37.90
18712;DHT22;9485;49.386;8.674;2023-06-19T01:06:55;26.10;38.30
18712;DHT22;9485;49.386;8.674;2023-06-19T01:12:28;26.20;38.50
18712;DHT22;9485;49.386;8.674;2023-06-19T01:17:54;26.40;38.80
18712;DHT22;9485;49.386;8.674;2023-06-19T01:23:17;26.50;38.40
18712;DHT22;9485;49.386;8.674;2023-06-19T01:28:39;26.70;38.60
18712;DHT22;9485;49.386;8.674;2023-06-19T01:34:04;26.80;38.50
18712;DHT22;9485;49.386;8.674;2023-06-19T01:39:29;26.80;38.50
18712;DHT22;9485;49.386;8.674;2023-06-19T01:44:53;26.90;38.70
18712;DHT22;9485;49.386;8.674;2023-06-19T01:50:14;26.90;38.50
18712;DHT22;9485;49.386;8.674;2023-06-19T01:55:36;26.90;38.60
18712;DHT22;9485;49.386;8.674;2023-06-19T02:00:57;26.90;38.80
18712;DHT22;9485;49.386;8.674;2023-06-19T02:06:18;26.90;38.70
18712;DHT22;9485;49.386;8.674;2023-06-19T02:11:41;26.90;38.90
18712;DHT22;9485;49.386;8.674;2023-06-19T02:17:02;26.90;39.10
18712;DHT22;9485;49.386;8.674;2023-06-19T02:22:23;26.80;39.10
18712;DHT22;9485;49.386;8.674;2023-06-19T02:27:45;26.80;39.40
18712;DHT22;9485;49.386;8.674;2023-06-19T02:33:06;26.80;39.70
18712;DHT22;9485;49.386;8.674;2023-06-19T02:38:28;26.80;39.80
18712;DHT22;9485;49.386;8.674;2023-06-19T02:43:50;26.70;39.80
18712;DHT22;9485;49.386;8.674;2023-06-19T02:49:11;26.70;40.10
18712;DHT22;9485;49.386;8.674;2023-06-19T02:54:32;26.70;40.10
18712;DHT22;9485;49.386;8.674;2023-06-19T02:59:53;26.60;40.20
18712;DHT22;9485;49.386;8.674;2023-06-19T03:05:14;26.60;40.50
18712;DHT22;9485;49.386;8.674;2023-06-19T03:10:35;26.50;40.60
18712;DHT22;9485;49.386;8.674;2023-06-19T03:15:57;26.50;40.70
18712;DHT22;9485;49.386;8.674;2023-06-19T03:21:18;26.40;41.10
18712;DHT22;9485;49.386;8.674;2023-06-19T03:26:40;26.30;41.10
18712;DHT22;9485;49.386;8.674;2023-06-19T03:32:03;26.30;41.50
18712;DHT22;9485;49.386;8.674;2023-06-19T03:37:25;26.20;42.00
18712;DHT22;9485;49.386;8.674;2023-06-19T03:42:47;26.10;42.00
18712;DHT22;9485;49.386;8.674;2023-06-19T03:48:10;26.00;42.30
18712;DHT22;9485;49.386;8.674;2023-06-19T03:53:31;26.00;42.80
18712;DHT22;9485;49.386;8.674;2023-06-19T03:58:52;25.90;42.70
18712;DHT22;9485;49.386;8.674;2023-06-19T04:04:14;25.90;43.00
18712;DHT22;9485;49.386;8.674;2023-06-19T04:09:36;25.80;43.60
18712;DHT22;9485;49.386;8.674;2023-06-19T04:14:57;25.80;43.60
18712;DHT22;9485;49.386;8.674;2023-06-19T04:20:20;25.70;43.70
18712;DHT22;9485;49.386;8.674;2023-06-19T04:25:41;25.70;44.10
18712;DHT22;9485;49.386;8.674;2023-06-19T04:31:02;25.60;44.60
18712;DHT22;9485;49.386;8.674;2023-06-19T04:36:24;25.60;44.20
18712;DHT22;9485;49.386;8.674;2023-06-19T04:41:45;25.60;44.70
18712;DHT22;9485;49.386;8.674;2023-06-19T04:47:06;25.60;44.60
18712;DHT22;9485;49.386;8.674;2023-06-19T04:52:29;25.60;44.70
18712;DHT22;9485;49.386;8.674;2023-06-19T04:57:52;25.70;45.10
18712;DHT22;9485;49.386;8.674;2023-06-19T05:03:14;25.60;44.80
18712;DHT22;9485;49.386;8.674;2023-06-19T05:08:38;25.60;45.50
18712;DHT22;9485;49.386;8.674;2023-06-19T05:13:59;25.60;47.10
18712;DHT22;9485;49.386;8.674;2023-06-19T05:19:21;25.50;47.40
18712;DHT22;9485;49.386;8.674;2023-06-19T05:24:44;25.30;47.40
18712;DHT22;9485;49.386;8.674;2023-06-19T05:30:06;25.30;47.80
18712;DHT22;9485;49.386;8.674;2023-06-19T05:35:28;25.20;47.50
18712;DHT22;9485;49.386;8.674;2023-06-19T05:40:52;25.30;47.40
18712;DHT22;9485;49.386;8.674;2023-06-19T05:46:14;25.30;47.70
18712;DHT22;9485;49.386;8.674;2023-06-19T05:51:34;25.50;47.20
18712;DHT22;9485;49.386;8.674;2023-06-19T05:56:56;25.60;47.10
18712;DHT22;9485;49.386;8.674;2023-06-19T06:02:17;25.80;47.40
18712;DHT22;9485;49.386;8.674;2023-06-19T06:07:39;25.90;47.10
18712;DHT22;9485;49.386;8.674;2023-06-19T06:13:00;26.10;47.10
18712;DHT22;9485;49.386;8.674;2023-06-19T06:18:21;26.20;47.20
18712;DHT22;9485;49.386;8.674;2023-06-19T06:23:42;26.40;47.00
18712;DHT22;9485;49.386;8.674;2023-06-19T06:29:05;26.50;47.50
18712;DHT22;9485;49.386;8.674;2023-06-19T06:34:26;26.70;47.10
18712;DHT22;9485;49.386;8.674;2023-06-19T06:39:46;26.90;46.90
18712;DHT22;9485;49.386;8.674;2023-06-19T06:45:09;27.20;47.10
18712;DHT22;9485;49.386;8.674;2023-06-19T06:50:31;27.40;47.10
18712;DHT22;9485;49.386;8.674;2023-06-19T06:55:51;27.60;46.50
18712;DHT22;9485;49.386;8.674;2023-06-19T07:01:13;27.80;46.40
18712;DHT22;9485;49.386;8.674;2023-06-19T07:06:34;27.90;46.40
18712;DHT22;9485;49.386;8.674;2023-06-19T07:11:56;28.00;46.20
18712;DHT22;9485;49.386;8.674;2023-06-19T07:17:18;28.10;46.20
18712;DHT22;9485;49.386;8.674;2023-06-19T07:22:39;28.30;46.30
18712;DHT22;9485;49.386;8.674;2023-06-19T07:28:01;28.50;46.00
18712;DHT22;9485;49.386;8.674;2023-06-19T07:33:25;28.70;46.00
18712;DHT22;9485;49.386;8.674;2023-06-19T07:38:46;29.00;45.80
18712;DHT22;9485;49.386;8.674;2023-06-19T07:44:06;29.10;45.40
18712;DHT22;9485;49.386;8.674;2023-06-19T07:49:29;29.20;45.20
18712;DHT22;9485;49.386;8.674;2023-06-19T07:54:52;29.30;45.30
18712;DHT22;9485;49.386;8.674;2023-06-19T08:00:14;29.40;45.20
18712;DHT22;9485;49.386;8.674;2023-06-19T08:05:36;29.50;45.30
18712;DHT22;9485;49.386;8.674;2023-06-19T08:10:58;29.60;45.00
18712;DHT22;9485;49.386;8.674;2023-06-19T08:16:19;29.60;44.60
18712;DHT22;9485;49.386;8.674;2023-06-19T08:21:41;29.60;44.90
18712;DHT22;9485;49.386;8.674;2023-06-19T08:27:02;29.50;44.90
18712;DHT22;9485;49.386;8.674;2023-06-19T08:32:23;29.50;44.80
18712;DHT22;9485;49.386;8.674;2023-06-19T08:37:45;29.50;44.70
18712;DHT22;9485;49.386;8.674;2023-06-19T08:43:06;29.50;45.20
18712;DHT22;9485;49.386;8.674;2023-06-19T08:48:27;29.70;45.30
18712;DHT22;9485;49.386;8.674;2023-06-19T08:53:55;29.90;45.10
18712;DHT22;9485;49.386;8.674;2023-06-19T08:59:20;30.00;45.00
18712;DHT22;9485;49.386;8.674;2023-06-19T09:04:41;30.20;45.10
18712;DHT22;9485;49.386;8.674;2023-06-19T09:10:14;30.50;45.10
18712;DHT22;9485;49.386;8.674;2023-06-19T09:15:38;30.90;45.00
18712;DHT22;9485;49.386;8.674;2023-06-19T09:21:00;31.40;45.10
18712;DHT22;9485;49.386;8.674;2023-06-19T09:26:22;31.80;44.60
18712;DHT22;9485;49.386;8.674;2023-06-19T09:31:43;32.40;44.10
18712;DHT22;9485;49.386;8.674;2023-06-19T09:37:05;32.70;43.60
18712;DHT22;9485;49.386;8.674;2023-06-19T09:42:31;33.00;43.30
18712;DHT22;9485;49.386;8.674;2023-06-19T09:47:53;33.40;43.30
18712;DHT22;9485;49.386;8.674;2023-06-19T09:53:15;33.70;42.70
18712;DHT22;9485;49.386;8.674;2023-06-19T09:58:38;34.20;42.40
18712;DHT22;9485;49.386;8.674;2023-06-19T10:04:06;34.70;41.60
18712;DHT22;9485;49.386;8.674;2023-06-19T10:09:32;35.00;40.50
18712;DHT22;9485;49.386;8.674;2023-06-19T10:14:56;35.20;40.50
18712;DHT22;9485;49.386;8.674;2023-06-19T10:20:23;35.20;40.30
18712;DHT22;9485;49.386;8.674;2023-06-19T10:25:48;35.30;40.00
18712;DHT22;9485;49.386;8.674;2023-06-19T10:31:17;35.40;39.60
18712;DHT22;9485;49.386;8.674;2023-06-19T10:36:38;35.50;39.20
18712;DHT22;9485;49.386;8.674;2023-06-19T10:41:59;35.60;39.70
18712;DHT22;9485;49.386;8.674;2023-06-19T10:47:23;35.80;39.60
18712;DHT22;9485;49.386;8.674;2023-06-19T10:52:45;35.90;39.00
18712;DHT22;9485;49.386;8.674;2023-06-19T10:58:08;35.90;39.10
18712;DHT22;9485;49.386;8.674;2023-06-19T11:03:32;36.00;39.00
18712;DHT22;9485;49.386;8.674;2023-06-19T11:08:55;36.20;38.60
18712;DHT22;9485;49.386;8.674;2023-06-19T11:14:16;36.50;38.70
18712;DHT22;9485;49.386;8.674;2023-06-19T11:19:39;36.80;38.20
18712;DHT22;9485;49.386;8.674;2023-06-19T11:25:03;37.00;37.60
18712;DHT22;9485;49.386;8.674;2023-06-19T11:30:30;37.00;37.50
18712;DHT22;9485;49.386;8.674;2023-06-19T11:35:55;37.00;36.90
18712;DHT22;9485;49.386;8.674;2023-06-19T11:41:30;37.00;37.20
18712;DHT22;9485;49.386;8.674;2023-06-19T11:47:19;37.00;36.60
18712;DHT22;9485;49.386;8.674;2023-06-19T11:52:43;37.10;36.50
18712;DHT22;9485;49.386;8.674;2023-06-19T11:58:06;37.10;36.70
18712;DHT22;9485;49.386;8.674;2023-06-19T12:03:28;37.20;36.90
18712;DHT22;9485;49.386;8.674;2023-06-19T12:08:52;37.40;36.80
18712;DHT22;9485;49.386;8.674;2023-06-19T12:14:13;37.80;36.30
18712;DHT22;9485;49.386;8.674;2023-06-19T12:19:36;38.00;35.90
18712;DHT22;9485;49.386;8.674;2023-06-19T12:24:59;38.10;35.20
18712;DHT22;9485;49.386;8.674;2023-06-19T12:30:21;37.90;34.80
18712;DHT22;9485;49.386;8.674;2023-06-19T12:35:44;37.50;34.90
18712;DHT22;9485;49.386;8.674;2023-06-19T12:41:07;37.20;34.90
18712;DHT22;9485;49.386;8.674;2023-06-19T12:46:29;36.80;35.00
18712;DHT22;9485;49.386;8.674;2023-06-19T12:51:50;36.60;35.40
18712;DHT22;9485;49.386;8.674;2023-06-19T12:57:13;36.50;36.10
18712;DHT22;9485;49.386;8.674;2023-06-19T13:02:36;36.70;35.90
18712;DHT22;9485;49.386;8.674;2023-06-19T13:07:58;36.80;35.80
18712;DHT22;9485;49.386;8.674;2023-06-19T13:13:20;37.10;35.80
18712;DHT22;9485;49.386;8.674;2023-06-19T13:18:41;37.50;35.40
18712;DHT22;9485;49.386;8.674;2023-06-19T13:24:02;38.00;35.10
18712;DHT22;9485;49.386;8.674;2023-06-19T13:29:24;38.20;35.00
18712;DHT22;9485;49.386;8.674;2023-06-19T13:34:45;38.70;34.50
18712;DHT22;9485;49.386;8.674;2023-06-19T13:40:07;39.10;34.30
18712;DHT22;9485;49.386;8.674;2023-06-19T13:45:30;39.30;33.70
18712;DHT22;9485;49.386;8.674;2023-06-19T13:50:51;39.30;33.60
18712;DHT22;9485;49.386;8.674;2023-06-19T13:56:12;39.40;33.50
18712;DHT22;9485;49.386;8.674;2023-06-19T14:01:34;39.60;33.40
18712;DHT22;9485;49.386;8.674;2023-06-19T14:06:54;39.90;33.20
18712;DHT22;9485;49.386;8.674;2023-06-19T14:12:15;40.00;32.70
18712;DHT22;9485;49.386;8.674;2023-06-19T14:17:37;40.00;32.40
18712;DHT22;9485;49.386;8.674;2023-06-19T14:22:59;39.70;31.70
18712;DHT22;9485;49.386;8.674;2023-06-19T14:28:21;39.20;32.00
18712;DHT22;9485;49.386;8.674;2023-06-19T14:33:43;38.60;32.20
18712;DHT22;9485;49.386;8.674;2023-06-19T14:39:04;38.10;32.60
18712;DHT22;9485;49.386;8.674;2023-06-19T14:44:24;37.60;33.00
18712;DHT22;9485;49.386;8.674;2023-06-19T14:49:47;37.20;33.50
18712;DHT22;9485;49.386;8.674;2023-06-19T14:55:10;37.00;33.80
18712;DHT22;9485;49.386;8.674;2023-06-19T15:00:31;36.90;34.00
18712;DHT22;9485;49.386;8.674;2023-06-19T15:05:55;36.70;34.10
18712;DHT22;9485;49.386;8.674;2023-06-19T15:11:16;36.60;34.20
18712;DHT22;9485;49.386;8.674;2023-06-19T15:16:37;36.30;34.00
18712;DHT22;9485;49.386;8.674;2023-06-19T15:21:59;36.00;34.30
18712;DHT22;9485;49.386;8.674;2023-06-19T15:27:20;35.60;34.40
18712;DHT22;9485;49.386;8.674;2023-06-19T15:32:41;35.20;34.80
18712;DHT22;9485;49.386;8.674;2023-06-19T15:38:03;34.90;35.30
18712;DHT22;9485;49.386;8.674;2023-06-19T15:43:25;34.60;35.60
18712;DHT22;9485;49.386;8.674;2023-06-19T15:48:48;34.40;35.70
18712;DHT22;9485;49.386;8.674;2023-06-19T15:54:11;34.20;36.00
18712;DHT22;9485;49.386;8.674;2023-06-19T15:59:32;33.90;36.40
18712;DHT22;9485;49.386;8.674;2023-06-19T16:04:52;33.80;36.60
18712;DHT22;9485;49.386;8.674;2023-06-19T16:10:15;33.70;36.90
18712;DHT22;9485;49.386;8.674;2023-06-19T16:15:36;33.70;37.10
18712;DHT22;9485;49.386;8.674;2023-06-19T16:20:57;33.60;37.00
18712;DHT22;9485;49.386;8.674;2023-06-19T16:26:20;33.60;36.90
18712;DHT22;9485;49.386;8.674;2023-06-19T16:31:41;33.70;37.20
18712;DHT22;9485;49.386;8.674;2023-06-19T16:37:02;33.70;37.00
18712;DHT22;9485;49.386;8.674;2023-06-19T16:42:24;33.80;36.90
18712;DHT22;9485;49.386;8.674;2023-06-19T16:47:45;33.80;36.90
18712;DHT22;9485;49.386;8.674;2023-06-19T16:53:06;33.80;36.90
18712;DHT22;9485;49.386;8.674;2023-06-19T16:58:28;33.70;37.00
18712;DHT22;9485;49.386;8.674;2023-06-19T17:03:49;33.70;37.10
18712;DHT22;9485;49.386;8.674;2023-06-19T17:09:10;33.60;37.20
18712;DHT22;9485;49.386;8.674;2023-06-19T17:14:32;33.60;37.30
18712;DHT22;9485;49.386;8.674;2023-06-19T17:19:53;33.60;37.40
18712;DHT22;9485;49.386;8.674;2023-06-19T17:25:14;33.50;37.70
18712;DHT22;9485;49.386;8.674;2023-06-19T17:30:36;33.50;37.90
18712;DHT22;9485;49.386;8.674;2023-06-19T17:35:59;33.30;37.70
18712;DHT22;9485;49.386;8.674;2023-06-19T17:41:22;33.30;37.80
18712;DHT22;9485;49.386;8.674;2023-06-19T17:46:44;33.10;37.80
18712;DHT22;9485;49.386;8.674;2023-06-19T17:52:05;33.00;38.00
18712;DHT22;9485;49.386;8.674;2023-06-19T17:57:27;32.90;38.10
18712;DHT22;9485;49.386;8.674;2023-06-19T18:02:49;32.90;38.10
18712;DHT22;9485;49.386;8.674;2023-06-19T18:08:10;32.80;38.20
18712;DHT22;9485;49.386;8.674;2023-06-19T18:13:31;32.70;38.20
18712;DHT22;9485;49.386;8.674;2023-06-19T18:18:54;32.50;38.20
18712;DHT22;9485;49.386;8.674;2023-06-19T18:24:14;32.40;38.40
18712;DHT22;9485;49.386;8.674;2023-06-19T18:29:35;32.20;38.60
18712;DHT22;9485;49.386;8.674;2023-06-19T18:34:58;32.10;39.30
18712;DHT22;9485;49.386;8.674;2023-06-19T18:40:18;31.90;39.40
18712;DHT22;9485;49.386;8.674;2023-06-19T18:45:39;31.80;39.70
18712;DHT22;9485;49.386;8.674;2023-06-19T18:51:01;31.60;39.60
18712;DHT22;9485;49.386;8.674;2023-06-19T18:56:22;31.60;40.00
18712;DHT22;9485;49.386;8.674;2023-06-19T19:01:43;31.40;39.80
18712;DHT22;9485;49.386;8.674;2023-06-19T19:07:06;31.30;40.50
18712;DHT22;9485;49.386;8.674;2023-06-19T19:12:27;31.20;41.10
18712;DHT22;9485;49.386;8.674;2023-06-19T19:17:48;31.00;41.20
18712;DHT22;9485;49.386;8.674;2023-06-19T19:23:11;30.90;41.40
18712;DHT22;9485;49.386;8.674;2023-06-19T19:28:32;30.70;41.70
18712;DHT22;9485;49.386;8.674;2023-06-19T19:33:53;30.50;41.80
18712;DHT22;9485;49.386;8.674;2023-06-19T19:39:16;30.40;42.10
18712;DHT22;9485;49.386;8.674;2023-06-19T19:44:36;30.20;42.50
18712;DHT22;9485;49.386;8.674;2023-06-19T19:49:57;30.10;42.50
18712;DHT22;9485;49.386;8.674;2023-06-19T19:55:19;30.00;42.80
18712;DHT22;9485;49.386;8.674;2023-06-19T20:00:39;29.90;43.10
18712;DHT22;9485;49.386;8.674;2023-06-19T20:06:04;29.70;43.00
18712;DHT22;9485;49.386;8.674;2023-06-19T20:11:26;29.60;43.20
18712;DHT22;9485;49.386;8.674;2023-06-19T20:16:46;29.50;43.50
18712;DHT22;9485;49.386;8.674;2023-06-19T20:22:08;29.30;43.60
18712;DHT22;9485;49.386;8.674;2023-06-19T20:27:30;29.20;43.90
18712;DHT22;9485;49.386;8.674;2023-06-19T20:32:51;29.10;44.20
18712;DHT22;9485;49.386;8.674;2023-06-19T20:38:12;28.90;44.20
18712;DHT22;9485;49.386;8.674;2023-06-19T20:43:34;28.70;44.30
18712;DHT22;9485;49.386;8.674;2023-06-19T20:48:54;28.60;44.60
18712;DHT22;9485;49.386;8.674;2023-06-19T20:54:16;28.40;44.60
18712;DHT22;9485;49.386;8.674;2023-06-19T20:59:39;28.30;44.80
18712;DHT22;9485;49.386;8.674;2023-06-19T21:05:00;28.20;45.20
18712;DHT22;9485;49.386;8.674;2023-06-19T21:10:21;28.10;45.20
18712;DHT22;9485;49.386;8.674;2023-06-19T21:15:44;28.00;45.40
18712;DHT22;9485;49.386;8.674;2023-06-19T21:21:05;27.90;45.90
18712;DHT22;9485;49.386;8.674;2023-06-19T21:26:25;27.90;45.90
18712;DHT22;9485;49.386;8.674;2023-06-19T21:31:47;27.80;46.50
18712;DHT22;9485;49.386;8.674;2023-06-19T21:37:07;27.80;46.30
18712;DHT22;9485;49.386;8.674;2023-06-19T21:42:28;27.70;46.30
18712;DHT22;9485;49.386;8.674;2023-06-19T21:47:51;27.70;46.30
18712;DHT22;9485;49.386;8.674;2023-06-19T21:53:11;27.70;46.70
18712;DHT22;9485;49.386;8.674;2023-06-19T21:58:32;27.60;46.50
18712;DHT22;9485;49.386;8.674;2023-06-19T22:03:54;27.50;46.50
18712;DHT22;9485;49.386;8.674;2023-06-19T22:09:15;27.50;46.80
18712;DHT22;9485;49.386;8.674;2023-06-19T22:14:35;27.40;46.60
18712;DHT22;9485;49.386;8.674;2023-06-19T22:20:01;27.40;46.80
18712;DHT22;9485;49.386;8.674;2023-06-19T22:25:22;27.40;47.00
18712;DHT22;9485;49.386;8.674;2023-06-19T22:30:43;27.40;46.90
18712;DHT22;9485;49.386;8.674;2023-06-19T22:36:05;27.50;46.90
18712;DHT22;9485;49.386;8.674;2023-06-19T22:41:29;27.50;47.10
18712;DHT22;9485;49.386;8.674;2023-06-19T22:46:50;27.50;46.90
18712;DHT22;9485;49.386;8.674;2023-06-19T22:52:12;27.50;47.10
18712;DHT22;9485;49.386;8.674;2023-06-19T22:57:32;27.60;47.10
18712;DHT22;9485;49.386;8.674;2023-06-19T23:02:54;27.60;47.20
18712;DHT22;9485;49.386;8.674;2023-06-19T23:08:16;27.60;47.20
18712;DHT22;9485;49.386;8.674;2023-06-19T23:13:38;27.60;47.30
18712;DHT22;9485;49.386;8.674;2023-06-19T23:18:58;27.60;47.40
18712;DHT22;9485;49.386;8.674;2023-06-19T23:24:20;27.60;47.60
18712;DHT22;9485;49.386;8.674;2023-06-19T23:29:42;27.60;48.30
18712;DHT22;9485;49.386;8.674;2023-06-19T23:35:03;27.50;48.20
18712;DHT22;9485;49.386;8.674;2023-06-19T23:40:25;27.50;48.40
18712;DHT22;9485;49.386;8.674;2023-06-19T23:45:46;27.40;48.90
18712;DHT22;9485;49.386;8.674;2023-06-19T23:51:07;27.30;48.90
18712;DHT22;9485;49.386;8.674;2023-06-19T23:56:29;27.30;49.60
